sensor_id;sensor_type;location;lat;lon;timestamp;P1;durP1;ratioP1;P2;durP2;ratioP2
62711;SDS011;48772;55.586;37.730;2023-06-14T00:02:10;20.85;;;6.00;;
62711;SDS011;48772;55.586;37.730;2023-06-14T00:04:36;10.13;;;4.93;;
62711;SDS011;48772;55.586;37.730;2023-06-14T00:07:04;14.77;;;5.72;;
62711;SDS011;48772;55.586;37.730;2023-06-14T00:09:34;11.43;;;4.60;;
62711;SDS011;48772;55.586;37.730;2023-06-14T00:12:01;15.85;;;5.30;;
62711;SDS011;48772;55.586;37.730;2023-06-14T00:14:28;15.27;;;6.03;;
62711;SDS011;48772;55.586;37.730;2023-06-14T00:16:54;8.02;;;4.60;;
62711;SDS011;48772;55.586;37.730;2023-06-14T00:19:25;12.50;;;5.20;;
62711;SDS011;48772;55.586;37.730;2023-06-14T00:21:52;19.65;;;6.50;;
62711;SDS011;48772;55.586;37.730;2023-06-14T00:24:19;14.02;;;6.95;;
62711;SDS011;48772;55.586;37.730;2023-06-14T00:26:46;20.25;;;6.18;;
62711;SDS011;48772;55.586;37.730;2023-06-14T00:29:13;19.48;;;7.28;;
62711;SDS011;48772;55.586;37.730;2023-06-14T00:31:39;19.13;;;6.53;;
62711;SDS011;48772;55.586;37.730;2023-06-14T00:34:05;16.08;;;6.50;;
62711;SDS011;48772;55.586;37.730;2023-06-14T00:36:32;21.85;;;6.50;;
62711;SDS011;48772;55.586;37.730;2023-06-14T00:38:58;17.05;;;7.03;;
62711;SDS011;48772;55.586;37.730;2023-06-14T00:41:24;15.90;;;6.25;;
62711;SDS011;48772;55.586;37.730;2023-06-14T00:43:50;19.73;;;6.78;;
62711;SDS011;48772;55.586;37.730;2023-06-14T00:46:17;15.40;;;6.13;;
62711;SDS011;48772;55.586;37.730;2023-06-14T00:48:44;15.48;;;6.72;;
62711;SDS011;48772;55.586;37.730;2023-06-14T00:51:11;16.45;;;8.15;;
62711;SDS011;48772;55.586;37.730;2023-06-14T00:53:37;14.15;;;6.57;;
62711;SDS011;48772;55.586;37.730;2023-06-14T00:56:05;19.13;;;7.65;;
62711;SDS011;48772;55.586;37.730;2023-06-14T00:58:31;17.40;;;5.90;;
62711;SDS011;48772;55.586;37.730;2023-06-14T01:00:57;13.43;;;5.72;;
62711;SDS011;48772;55.586;37.730;2023-06-14T01:03:23;13.43;;;6.55;;
62711;SDS011;48772;55.586;37.730;2023-06-14T01:05:51;23.25;;;7.50;;
62711;SDS011;48772;55.586;37.730;2023-06-14T01:08:38;14.18;;;6.68;;
62711;SDS011;48772;55.586;37.730;2023-06-14T01:11:12;17.58;;;6.82;;
62711;SDS011;48772;55.586;37.730;2023-06-14T01:13:46;15.25;;;6.85;;
62711;SDS011;48772;55.586;37.730;2023-06-14T01:16:13;16.25;;;7.60;;
62711;SDS011;48772;55.586;37.730;2023-06-14T01:18:39;17.83;;;6.90;;
62711;SDS011;48772;55.586;37.730;2023-06-14T01:21:19;22.95;;;6.75;;
62711;SDS011;48772;55.586;37.730;2023-06-14T01:23:48;15.55;;;6.82;;
62711;SDS011;48772;55.586;37.730;2023-06-14T01:26:19;17.77;;;7.13;;
62711;SDS011;48772;55.586;37.730;2023-06-14T01:28:45;19.23;;;7.15;;
62711;SDS011;48772;55.586;37.730;2023-06-14T01:31:16;19.05;;;7.88;;
62711;SDS011;48772;55.586;37.730;2023-06-14T01:33:45;19.55;;;7.28;;
62711;SDS011;48772;55.586;37.730;2023-06-14T01:36:11;19.42;;;7.15;;
62711;SDS011;48772;55.586;37.730;2023-06-14T01:38:38;19.00;;;7.80;;
62711;SDS011;48772;55.586;37.730;2023-06-14T01:41:05;15.82;;;7.35;;
62711;SDS011;48772;55.586;37.730;2023-06-14T01:43:31;14.18;;;7.30;;
62711;SDS011;48772;55.586;37.730;2023-06-14T01:45:59;19.73;;;7.22;;
62711;SDS011;48772;55.586;37.730;2023-06-14T01:48:27;23.40;;;6.88;;
62711;SDS011;48772;55.586;37.730;2023-06-14T01:50:53;18.42;;;7.10;;
62711;SDS011;48772;55.586;37.730;2023-06-14T01:53:20;20.65;;;7.65;;
62711;SDS011;48772;55.586;37.730;2023-06-14T01:55:46;19.17;;;7.50;;
62711;SDS011;48772;55.586;37.730;2023-06-14T01:58:14;18.08;;;7.63;;
62711;SDS011;48772;55.586;37.730;2023-06-14T02:00:41;22.70;;;8.13;;
62711;SDS011;48772;55.586;37.730;2023-06-14T02:03:09;32.28;;;7.80;;
62711;SDS011;48772;55.586;37.730;2023-06-14T02:05:35;19.80;;;7.60;;
62711;SDS011;48772;55.586;37.730;2023-06-14T02:08:00;29.98;;;9.15;;
62711;SDS011;48772;55.586;37.730;2023-06-14T02:10:26;23.75;;;7.70;;
62711;SDS011;48772;55.586;37.730;2023-06-14T02:12:54;15.80;;;7.90;;
62711;SDS011;48772;55.586;37.730;2023-06-14T02:15:20;24.95;;;8.02;;
62711;SDS011;48772;55.586;37.730;2023-06-14T02:17:47;21.98;;;7.80;;
62711;SDS011;48772;55.586;37.730;2023-06-14T02:20:16;21.33;;;8.45;;
62711;SDS011;48772;55.586;37.730;2023-06-14T02:22:43;28.60;;;8.27;;
62711;SDS011;48772;55.586;37.730;2023-06-14T02:25:09;21.77;;;8.52;;
62711;SDS011;48772;55.586;37.730;2023-06-14T02:27:35;21.73;;;7.82;;
62711;SDS011;48772;55.586;37.730;2023-06-14T02:30:03;28.92;;;8.75;;
62711;SDS011;48772;55.586;37.730;2023-06-14T02:32:33;24.67;;;8.30;;
62711;SDS011;48772;55.586;37.730;2023-06-14T02:35:02;21.70;;;8.57;;
62711;SDS011;48772;55.586;37.730;2023-06-14T02:37:31;26.40;;;8.18;;
62711;SDS011;48772;55.586;37.730;2023-06-14T02:39:58;25.63;;;8.43;;
62711;SDS011;48772;55.586;37.730;2023-06-14T02:42:25;27.25;;;8.35;;
62711;SDS011;48772;55.586;37.730;2023-06-14T02:44:50;28.42;;;9.10;;
62711;SDS011;48772;55.586;37.730;2023-06-14T02:47:18;15.70;;;8.85;;
62711;SDS011;48772;55.586;37.730;2023-06-14T02:49:44;25.05;;;8.93;;
62711;SDS011;48772;55.586;37.730;2023-06-14T02:52:14;29.77;;;9.32;;
62711;SDS011;48772;55.586;37.730;2023-06-14T02:54:41;34.72;;;9.85;;
62711;SDS011;48772;55.586;37.730;2023-06-14T02:57:08;33.30;;;10.20;;
62711;SDS011;48772;55.586;37.730;2023-06-14T02:59:34;28.52;;;9.80;;
62711;SDS011;48772;55.586;37.730;2023-06-14T03:02:02;26.63;;;9.38;;
62711;SDS011;48772;55.586;37.730;2023-06-14T03:04:30;31.20;;;9.80;;
62711;SDS011;48772;55.586;37.730;2023-06-14T03:07:00;24.33;;;9.98;;
62711;SDS011;48772;55.586;37.730;2023-06-14T03:09:28;29.33;;;9.93;;
62711;SDS011;48772;55.586;37.730;2023-06-14T03:11:55;25.02;;;9.82;;
62711;SDS011;48772;55.586;37.730;2023-06-14T03:14:21;21.63;;;9.90;;
62711;SDS011;48772;55.586;37.730;2023-06-14T03:16:48;25.83;;;10.05;;
62711;SDS011;48772;55.586;37.730;2023-06-14T03:19:16;28.23;;;10.18;;
62711;SDS011;48772;55.586;37.730;2023-06-14T03:21:42;33.70;;;10.00;;
62711;SDS011;48772;55.586;37.730;2023-06-14T03:24:10;23.40;;;9.82;;
62711;SDS011;48772;55.586;37.730;2023-06-14T03:26:37;28.30;;;10.85;;
62711;SDS011;48772;55.586;37.730;2023-06-14T03:29:03;28.67;;;9.23;;
62711;SDS011;48772;55.586;37.730;2023-06-14T03:31:29;23.55;;;9.52;;
62711;SDS011;48772;55.586;37.730;2023-06-14T03:34:00;22.75;;;9.60;;
62711;SDS011;48772;55.586;37.730;2023-06-14T03:36:27;22.50;;;9.10;;
62711;SDS011;48772;55.586;37.730;2023-06-14T03:38:54;21.02;;;8.98;;
62711;SDS011;48772;55.586;37.730;2023-06-14T03:41:21;17.63;;;8.93;;
62711;SDS011;48772;55.586;37.730;2023-06-14T03:43:48;26.98;;;9.00;;
62711;SDS011;48772;55.586;37.730;2023-06-14T03:46:14;15.27;;;7.90;;
62711;SDS011;48772;55.586;37.730;2023-06-14T03:48:40;17.88;;;9.07;;
62711;SDS011;48772;55.586;37.730;2023-06-14T03:51:07;22.38;;;7.78;;
62711;SDS011;48772;55.586;37.730;2023-06-14T03:53:33;14.52;;;6.97;;
62711;SDS011;48772;55.586;37.730;2023-06-14T03:56:02;16.02;;;7.18;;
62711;SDS011;48772;55.586;37.730;2023-06-14T03:58:37;17.25;;;6.30;;
62711;SDS011;48772;55.586;37.730;2023-06-14T04:01:40;14.52;;;6.15;;
62711;SDS011;48772;55.586;37.730;2023-06-14T04:04:13;15.10;;;6.35;;
62711;SDS011;48772;55.586;37.730;2023-06-14T04:06:58;20.98;;;6.50;;
62711;SDS011;48772;55.586;37.730;2023-06-14T04:09:26;16.77;;;5.43;;
62711;SDS011;48772;55.586;37.730;2023-06-14T04:11:52;19.17;;;5.95;;
62711;SDS011;48772;55.586;37.730;2023-06-14T04:14:21;18.30;;;5.70;;
62711;SDS011;48772;55.586;37.730;2023-06-14T04:16:47;18.33;;;6.07;;
62711;SDS011;48772;55.586;37.730;2023-06-14T04:19:16;17.83;;;5.82;;
62711;SDS011;48772;55.586;37.730;2023-06-14T04:21:42;11.68;;;5.63;;
62711;SDS011;48772;55.586;37.730;2023-06-14T04:24:08;16.13;;;5.47;;
62711;SDS011;48772;55.586;37.730;2023-06-14T04:26:42;15.55;;;5.85;;
62711;SDS011;48772;55.586;37.730;2023-06-14T04:29:15;16.08;;;5.65;;
62711;SDS011;48772;55.586;37.730;2023-06-14T04:31:45;15.15;;;6.13;;
62711;SDS011;48772;55.586;37.730;2023-06-14T04:34:12;16.05;;;6.00;;
62711;SDS011;48772;55.586;37.730;2023-06-14T04:36:45;14.95;;;6.40;;
62711;SDS011;48772;55.586;37.730;2023-06-14T04:39:20;15.65;;;6.43;;
62711;SDS011;48772;55.586;37.730;2023-06-14T04:41:47;15.70;;;6.10;;
62711;SDS011;48772;55.586;37.730;2023-06-14T04:44:13;18.70;;;6.63;;
62711;SDS011;48772;55.586;37.730;2023-06-14T04:46:44;17.27;;;6.55;;
62711;SDS011;48772;55.586;37.730;2023-06-14T04:49:18;22.27;;;6.50;;
62711;SDS011;48772;55.586;37.730;2023-06-14T04:51:44;16.30;;;6.25;;
62711;SDS011;48772;55.586;37.730;2023-06-14T04:54:12;14.70;;;5.95;;
62711;SDS011;48772;55.586;37.730;2023-06-14T04:56:40;18.60;;;6.30;;
62711;SDS011;48772;55.586;37.730;2023-06-14T04:59:08;17.73;;;6.20;;
62711;SDS011;48772;55.586;37.730;2023-06-14T05:01:35;12.00;;;6.13;;
62711;SDS011;48772;55.586;37.730;2023-06-14T05:04:01;15.15;;;6.03;;
62711;SDS011;48772;55.586;37.730;2023-06-14T05:06:28;17.73;;;6.35;;
62711;SDS011;48772;55.586;37.730;2023-06-14T05:08:55;17.70;;;5.93;;
62711;SDS011;48772;55.586;37.730;2023-06-14T05:11:22;13.35;;;5.80;;
62711;SDS011;48772;55.586;37.730;2023-06-14T05:13:52;16.10;;;6.13;;
62711;SDS011;48772;55.586;37.730;2023-06-14T05:16:18;19.60;;;6.22;;
62711;SDS011;48772;55.586;37.730;2023-06-14T05:18:45;14.45;;;5.90;;
62711;SDS011;48772;55.586;37.730;2023-06-14T05:21:12;13.50;;;5.95;;
62711;SDS011;48772;55.586;37.730;2023-06-14T05:23:41;20.75;;;6.22;;
62711;SDS011;48772;55.586;37.730;2023-06-14T05:26:07;16.23;;;5.65;;
62711;SDS011;48772;55.586;37.730;2023-06-14T05:28:33;16.75;;;5.50;;
62711;SDS011;48772;55.586;37.730;2023-06-14T05:30:59;11.05;;;5.57;;
62711;SDS011;48772;55.586;37.730;2023-06-14T05:33:25;14.27;;;5.70;;
62711;SDS011;48772;55.586;37.730;2023-06-14T05:35:51;12.85;;;5.28;;
62711;SDS011;48772;55.586;37.730;2023-06-14T05:38:35;15.43;;;4.88;;
62711;SDS011;48772;55.586;37.730;2023-06-14T05:41:01;12.23;;;4.38;;
62711;SDS011;48772;55.586;37.730;2023-06-14T05:43:27;12.95;;;4.80;;
62711;SDS011;48772;55.586;37.730;2023-06-14T05:45:53;10.95;;;4.55;;
62711;SDS011;48772;55.586;37.730;2023-06-14T05:48:18;13.98;;;5.18;;
62711;SDS011;48772;55.586;37.730;2023-06-14T05:57:56;8.25;;;2.75;;
62711;SDS011;48772;55.586;37.730;2023-06-14T06:16:04;6.05;;;3.10;;
62711;SDS011;48772;55.586;37.730;2023-06-14T06:21:55;8.25;;;3.10;;
62711;SDS011;48772;55.586;37.730;2023-06-14T06:37:44;8.05;;;2.80;;
62711;SDS011;48772;55.586;37.730;2023-06-14T06:57:05;8.38;;;2.60;;
62711;SDS011;48772;55.586;37.730;2023-06-14T06:59:53;6.93;;;2.38;;
62711;SDS011;48772;55.586;37.730;2023-06-14T07:09:13;9.82;;;2.90;;
62711;SDS011;48772;55.586;37.730;2023-06-14T07:17:28;4.90;;;2.85;;
62711;SDS011;48772;55.586;37.730;2023-06-14T07:30:16;7.00;;;2.45;;
62711;SDS011;48772;55.586;37.730;2023-06-14T07:40:57;5.10;;;2.70;;
62711;SDS011;48772;55.586;37.730;2023-06-14T07:51:44;5.50;;;2.53;;
62711;SDS011;48772;55.586;37.730;2023-06-14T07:54:24;5.80;;;2.50;;
62711;SDS011;48772;55.586;37.730;2023-06-14T07:57:42;5.03;;;2.40;;
62711;SDS011;48772;55.586;37.730;2023-06-14T08:08:10;8.02;;;2.47;;
62711;SDS011;48772;55.586;37.730;2023-06-14T08:15:17;5.65;;;2.42;;
62711;SDS011;48772;55.586;37.730;2023-06-14T08:29:34;11.40;;;2.58;;
62711;SDS011;48772;55.586;37.730;2023-06-14T08:37:23;9.00;;;2.80;;
62711;SDS011;48772;55.586;37.730;2023-06-14T08:48:32;8.23;;;2.90;;
62711;SDS011;48772;55.586;37.730;2023-06-14T08:52:39;3.17;;;2.70;;
62711;SDS011;48772;55.586;37.730;2023-06-14T08:56:35;4.85;;;2.95;;
62711;SDS011;48772;55.586;37.730;2023-06-14T09:00:16;5.45;;;2.85;;
62711;SDS011;48772;55.586;37.730;2023-06-14T09:08:49;15.55;;;3.10;;
62711;SDS011;48772;55.586;37.730;2023-06-14T09:11:24;8.55;;;3.13;;
62711;SDS011;48772;55.586;37.730;2023-06-14T09:14:29;5.70;;;2.80;;
62711;SDS011;48772;55.586;37.730;2023-06-14T09:17:36;6.63;;;2.97;;
62711;SDS011;48772;55.586;37.730;2023-06-14T09:20:45;9.63;;;3.08;;
62711;SDS011;48772;55.586;37.730;2023-06-14T09:23:38;5.00;;;3.10;;
62711;SDS011;48772;55.586;37.730;2023-06-14T09:27:05;9.77;;;2.90;;
62711;SDS011;48772;55.586;37.730;2023-06-14T09:47:06;13.25;;;3.28;;
62711;SDS011;48772;55.586;37.730;2023-06-14T09:50:00;6.07;;;2.90;;
62711;SDS011;48772;55.586;37.730;2023-06-14T09:52:32;7.28;;;3.00;;
62711;SDS011;48772;55.586;37.730;2023-06-14T09:55:03;10.20;;;3.00;;
62711;SDS011;48772;55.586;37.730;2023-06-14T10:05:02;10.10;;;3.25;;
62711;SDS011;48772;55.586;37.730;2023-06-14T10:11:05;10.00;;;3.20;;
62711;SDS011;48772;55.586;37.730;2023-06-14T10:13:35;7.00;;;3.33;;
62711;SDS011;48772;55.586;37.730;2023-06-14T10:25:06;4.15;;;3.20;;
62711;SDS011;48772;55.586;37.730;2023-06-14T10:29:09;14.48;;;3.35;;
62711;SDS011;48772;55.586;37.730;2023-06-14T10:31:40;4.50;;;3.13;;
62711;SDS011;48772;55.586;37.730;2023-06-14T10:34:27;5.82;;;2.88;;
62711;SDS011;48772;55.586;37.730;2023-06-14T10:37:03;6.13;;;3.55;;
62711;SDS011;48772;55.586;37.730;2023-06-14T10:39:39;6.90;;;2.90;;
62711;SDS011;48772;55.586;37.730;2023-06-14T10:47:20;6.25;;;3.13;;
62711;SDS011;48772;55.586;37.730;2023-06-14T10:50:10;6.30;;;3.30;;
62711;SDS011;48772;55.586;37.730;2023-06-14T10:52:42;6.93;;;3.00;;
62711;SDS011;48772;55.586;37.730;2023-06-14T11:00:13;8.20;;;3.20;;
62711;SDS011;48772;55.586;37.730;2023-06-14T11:03:01;5.10;;;3.00;;
62711;SDS011;48772;55.586;37.730;2023-06-14T11:05:49;5.15;;;2.70;;
62711;SDS011;48772;55.586;37.730;2023-06-14T11:10:58;7.97;;;3.85;;
62711;SDS011;48772;55.586;37.730;2023-06-14T11:13:28;7.03;;;2.90;;
62711;SDS011;48772;55.586;37.730;2023-06-14T11:15:54;7.50;;;3.72;;
62711;SDS011;48772;55.586;37.730;2023-06-14T11:18:22;7.45;;;3.05;;
62711;SDS011;48772;55.586;37.730;2023-06-14T11:20:53;12.57;;;4.03;;
62711;SDS011;48772;55.586;37.730;2023-06-14T11:23:19;5.97;;;3.20;;
62711;SDS011;48772;55.586;37.730;2023-06-14T11:25:50;6.82;;;2.80;;
62711;SDS011;48772;55.586;37.730;2023-06-14T11:28:17;5.35;;;3.05;;
62711;SDS011;48772;55.586;37.730;2023-06-14T11:30:45;7.05;;;2.83;;
62711;SDS011;48772;55.586;37.730;2023-06-14T11:33:17;5.18;;;3.15;;
62711;SDS011;48772;55.586;37.730;2023-06-14T11:35:44;5.88;;;2.53;;
62711;SDS011;48772;55.586;37.730;2023-06-14T11:38:14;5.82;;;2.85;;
62711;SDS011;48772;55.586;37.730;2023-06-14T11:40:40;9.93;;;4.93;;
62711;SDS011;48772;55.586;37.730;2023-06-14T11:43:06;6.90;;;2.80;;
62711;SDS011;48772;55.586;37.730;2023-06-14T11:45:32;5.20;;;2.88;;
62711;SDS011;48772;55.586;37.730;2023-06-14T11:47:58;12.98;;;3.10;;
62711;SDS011;48772;55.586;37.730;2023-06-14T11:50:25;6.43;;;3.40;;
62711;SDS011;48772;55.586;37.730;2023-06-14T11:52:56;5.13;;;3.30;;
62711;SDS011;48772;55.586;37.730;2023-06-14T11:55:39;10.10;;;3.30;;
62711;SDS011;48772;55.586;37.730;2023-06-14T11:58:06;4.38;;;3.03;;
62711;SDS011;48772;55.586;37.730;2023-06-14T12:00:32;10.15;;;2.75;;
62711;SDS011;48772;55.586;37.730;2023-06-14T12:03:01;7.63;;;3.45;;
62711;SDS011;48772;55.586;37.730;2023-06-14T12:05:28;5.82;;;4.00;;
62711;SDS011;48772;55.586;37.730;2023-06-14T12:07:58;8.55;;;3.15;;
62711;SDS011;48772;55.586;37.730;2023-06-14T12:10:26;8.75;;;3.45;;
62711;SDS011;48772;55.586;37.730;2023-06-14T12:12:57;8.23;;;3.88;;
62711;SDS011;48772;55.586;37.730;2023-06-14T12:15:27;4.78;;;3.13;;
62711;SDS011;48772;55.586;37.730;2023-06-14T12:17:54;10.77;;;4.30;;
62711;SDS011;48772;55.586;37.730;2023-06-14T12:20:20;6.43;;;3.15;;
62711;SDS011;48772;55.586;37.730;2023-06-14T12:25:30;11.45;;;4.30;;
62711;SDS011;48772;55.586;37.730;2023-06-14T12:28:04;5.35;;;2.83;;
62711;SDS011;48772;55.586;37.730;2023-06-14T12:30:32;5.10;;;3.10;;
62711;SDS011;48772;55.586;37.730;2023-06-14T12:33:01;11.90;;;3.15;;
62711;SDS011;48772;55.586;37.730;2023-06-14T12:35:27;8.48;;;3.13;;
62711;SDS011;48772;55.586;37.730;2023-06-14T12:37:53;7.57;;;3.13;;
62711;SDS011;48772;55.586;37.730;2023-06-14T12:40:19;6.00;;;2.97;;
62711;SDS011;48772;55.586;37.730;2023-06-14T12:42:45;8.00;;;3.35;;
62711;SDS011;48772;55.586;37.730;2023-06-14T12:45:14;5.47;;;3.17;;
62711;SDS011;48772;55.586;37.730;2023-06-14T12:47:40;14.23;;;3.60;;
62711;SDS011;48772;55.586;37.730;2023-06-14T12:50:06;13.93;;;3.63;;
62711;SDS011;48772;55.586;37.730;2023-06-14T12:52:33;9.77;;;3.13;;
62711;SDS011;48772;55.586;37.730;2023-06-14T12:55:05;11.25;;;3.35;;
62711;SDS011;48772;55.586;37.730;2023-06-14T12:57:32;4.63;;;3.10;;
62711;SDS011;48772;55.586;37.730;2023-06-14T13:00:16;9.43;;;3.30;;
62711;SDS011;48772;55.586;37.730;2023-06-14T13:02:43;8.18;;;3.60;;
62711;SDS011;48772;55.586;37.730;2023-06-14T13:05:09;9.68;;;3.33;;
62711;SDS011;48772;55.586;37.730;2023-06-14T13:07:35;6.30;;;2.97;;
62711;SDS011;48772;55.586;37.730;2023-06-14T13:10:07;9.45;;;3.63;;
62711;SDS011;48772;55.586;37.730;2023-06-14T13:12:33;10.07;;;3.40;;
62711;SDS011;48772;55.586;37.730;2023-06-14T13:15:00;5.50;;;3.00;;
62711;SDS011;48772;55.586;37.730;2023-06-14T13:17:26;8.63;;;3.13;;
62711;SDS011;48772;55.586;37.730;2023-06-14T13:19:52;4.93;;;3.30;;
62711;SDS011;48772;55.586;37.730;2023-06-14T13:22:36;5.32;;;2.92;;
62711;SDS011;48772;55.586;37.730;2023-06-14T13:25:02;11.70;;;3.28;;
62711;SDS011;48772;55.586;37.730;2023-06-14T13:27:29;8.82;;;4.03;;
62711;SDS011;48772;55.586;37.730;2023-06-14T13:30:14;7.18;;;3.50;;
62711;SDS011;48772;55.586;37.730;2023-06-14T13:35:24;8.80;;;3.55;;
62711;SDS011;48772;55.586;37.730;2023-06-14T13:37:51;9.82;;;3.50;;
62711;SDS011;48772;55.586;37.730;2023-06-14T13:40:17;5.13;;;3.13;;
62711;SDS011;48772;55.586;37.730;2023-06-14T13:42:45;9.35;;;3.35;;
62711;SDS011;48772;55.586;37.730;2023-06-14T13:45:12;6.82;;;3.15;;
62711;SDS011;48772;55.586;37.730;2023-06-14T13:47:38;7.22;;;2.92;;
62711;SDS011;48772;55.586;37.730;2023-06-14T13:50:05;11.38;;;4.28;;
62711;SDS011;48772;55.586;37.730;2023-06-14T13:52:31;7.88;;;3.40;;
62711;SDS011;48772;55.586;37.730;2023-06-14T13:54:57;8.63;;;3.17;;
62711;SDS011;48772;55.586;37.730;2023-06-14T13:57:23;7.95;;;2.92;;
62711;SDS011;48772;55.586;37.730;2023-06-14T14:00:07;5.30;;;3.38;;
62711;SDS011;48772;55.586;37.730;2023-06-14T14:02:41;9.35;;;3.33;;
62711;SDS011;48772;55.586;37.730;2023-06-14T14:05:08;6.13;;;3.13;;
62711;SDS011;48772;55.586;37.730;2023-06-14T14:07:35;7.95;;;2.90;;
62711;SDS011;48772;55.586;37.730;2023-06-14T14:10:02;7.07;;;3.10;;
62711;SDS011;48772;55.586;37.730;2023-06-14T14:12:46;4.65;;;3.17;;
62711;SDS011;48772;55.586;37.730;2023-06-14T14:15:12;8.35;;;3.15;;
62711;SDS011;48772;55.586;37.730;2023-06-14T14:17:40;3.70;;;2.90;;
62711;SDS011;48772;55.586;37.730;2023-06-14T14:20:09;6.63;;;2.72;;
62711;SDS011;48772;55.586;37.730;2023-06-14T14:22:38;4.40;;;2.80;;
62711;SDS011;48772;55.586;37.730;2023-06-14T14:25:03;5.00;;;2.45;;
62711;SDS011;48772;55.586;37.730;2023-06-14T14:27:30;8.45;;;3.08;;
62711;SDS011;48772;55.586;37.730;2023-06-14T14:29:56;7.00;;;3.13;;
62711;SDS011;48772;55.586;37.730;2023-06-14T14:32:21;11.45;;;2.78;;
62711;SDS011;48772;55.586;37.730;2023-06-14T14:34:47;8.55;;;2.97;;
62711;SDS011;48772;55.586;37.730;2023-06-14T14:39:58;9.52;;;2.92;;
62711;SDS011;48772;55.586;37.730;2023-06-14T14:42:24;11.35;;;3.40;;
62711;SDS011;48772;55.586;37.730;2023-06-14T14:44:52;5.75;;;2.95;;
62711;SDS011;48772;55.586;37.730;2023-06-14T14:47:17;9.20;;;2.97;;
62711;SDS011;48772;55.586;37.730;2023-06-14T14:49:43;6.03;;;2.60;;
62711;SDS011;48772;55.586;37.730;2023-06-14T14:52:29;8.27;;;2.53;;
62711;SDS011;48772;55.586;37.730;2023-06-14T14:54:55;4.78;;;3.10;;
62711;SDS011;48772;55.586;37.730;2023-06-14T14:57:39;5.93;;;3.00;;
62711;SDS011;48772;55.586;37.730;2023-06-14T15:00:05;4.72;;;2.85;;
62711;SDS011;48772;55.586;37.730;2023-06-14T15:02:32;6.88;;;2.90;;
62711;SDS011;48772;55.586;37.730;2023-06-14T15:04:58;10.65;;;3.30;;
62711;SDS011;48772;55.586;37.730;2023-06-14T15:07:26;7.18;;;2.90;;
62711;SDS011;48772;55.586;37.730;2023-06-14T15:09:54;11.32;;;3.00;;
62711;SDS011;48772;55.586;37.730;2023-06-14T15:12:20;11.13;;;2.83;;
62711;SDS011;48772;55.586;37.730;2023-06-14T15:14:51;8.48;;;3.17;;
62711;SDS011;48772;55.586;37.730;2023-06-14T15:20:40;6.40;;;2.63;;
62711;SDS011;48772;55.586;37.730;2023-06-14T15:23:07;3.90;;;2.70;;
62711;SDS011;48772;55.586;37.730;2023-06-14T15:28:35;5.53;;;3.10;;
62711;SDS011;48772;55.586;37.730;2023-06-14T15:31:01;4.18;;;2.55;;
62711;SDS011;48772;55.586;37.730;2023-06-14T15:33:27;6.72;;;2.70;;
62711;SDS011;48772;55.586;37.730;2023-06-14T15:35:52;3.40;;;2.88;;
62711;SDS011;48772;55.586;37.730;2023-06-14T15:38:20;10.15;;;3.00;;
62711;SDS011;48772;55.586;37.730;2023-06-14T15:40:47;6.97;;;2.85;;
62711;SDS011;48772;55.586;37.730;2023-06-14T15:43:13;11.02;;;2.95;;
62711;SDS011;48772;55.586;37.730;2023-06-14T15:45:39;7.07;;;2.97;;
62711;SDS011;48772;55.586;37.730;2023-06-14T15:48:05;8.63;;;2.97;;
62711;SDS011;48772;55.586;37.730;2023-06-14T15:50:31;6.63;;;2.80;;
62711;SDS011;48772;55.586;37.730;2023-06-14T15:55:42;8.50;;;3.60;;
62711;SDS011;48772;55.586;37.730;2023-06-14T15:58:08;10.30;;;2.88;;
62711;SDS011;48772;55.586;37.730;2023-06-14T16:00:33;4.72;;;3.00;;
62711;SDS011;48772;55.586;37.730;2023-06-14T16:02:59;9.73;;;3.45;;
62711;SDS011;48772;55.586;37.730;2023-06-14T16:05:25;6.03;;;3.22;;
62711;SDS011;48772;55.586;37.730;2023-06-14T16:07:51;15.48;;;3.55;;
62711;SDS011;48772;55.586;37.730;2023-06-14T16:10:18;4.82;;;3.05;;
62711;SDS011;48772;55.586;37.730;2023-06-14T16:12:45;7.57;;;2.95;;
62711;SDS011;48772;55.586;37.730;2023-06-14T16:15:11;6.18;;;3.03;;
62711;SDS011;48772;55.586;37.730;2023-06-14T16:17:37;5.10;;;2.92;;
62711;SDS011;48772;55.586;37.730;2023-06-14T16:20:03;7.03;;;3.15;;
62711;SDS011;48772;55.586;37.730;2023-06-14T16:22:30;12.68;;;3.10;;
62711;SDS011;48772;55.586;37.730;2023-06-14T16:24:56;5.15;;;3.00;;
62711;SDS011;48772;55.586;37.730;2023-06-14T16:27:22;8.38;;;3.10;;
62711;SDS011;48772;55.586;37.730;2023-06-14T16:29:48;4.32;;;2.85;;
62711;SDS011;48772;55.586;37.730;2023-06-14T16:32:14;13.60;;;3.47;;
62711;SDS011;48772;55.586;37.730;2023-06-14T16:34:40;5.82;;;3.20;;
62711;SDS011;48772;55.586;37.730;2023-06-14T16:37:06;8.82;;;2.95;;
62711;SDS011;48772;55.586;37.730;2023-06-14T16:39:38;6.53;;;2.97;;
62711;SDS011;48772;55.586;37.730;2023-06-14T16:42:04;4.57;;;2.90;;
62711;SDS011;48772;55.586;37.730;2023-06-14T16:44:30;5.35;;;3.10;;
62711;SDS011;48772;55.586;37.730;2023-06-14T16:46:56;7.28;;;3.30;;
62711;SDS011;48772;55.586;37.730;2023-06-14T16:50:02;8.23;;;2.90;;
62711;SDS011;48772;55.586;37.730;2023-06-14T16:52:29;9.52;;;3.15;;
62711;SDS011;48772;55.586;37.730;2023-06-14T16:54:55;9.75;;;3.55;;
62711;SDS011;48772;55.586;37.730;2023-06-14T16:57:21;6.72;;;2.70;;
62711;SDS011;48772;55.586;37.730;2023-06-14T16:59:47;9.82;;;3.15;;
62711;SDS011;48772;55.586;37.730;2023-06-14T17:05:18;9.25;;;3.05;;
62711;SDS011;48772;55.586;37.730;2023-06-14T17:07:44;8.13;;;3.10;;
62711;SDS011;48772;55.586;37.730;2023-06-14T17:12:54;7.78;;;3.28;;
62711;SDS011;48772;55.586;37.730;2023-06-14T17:15:20;12.68;;;3.33;;
62711;SDS011;48772;55.586;37.730;2023-06-14T17:17:45;11.00;;;3.10;;
62711;SDS011;48772;55.586;37.730;2023-06-14T17:20:11;9.80;;;3.22;;
62711;SDS011;48772;55.586;37.730;2023-06-14T17:25:22;9.23;;;3.25;;
62711;SDS011;48772;55.586;37.730;2023-06-14T17:27:48;11.48;;;3.75;;
62711;SDS011;48772;55.586;37.730;2023-06-14T17:30:14;14.75;;;4.78;;
62711;SDS011;48772;55.586;37.730;2023-06-14T17:32:40;8.27;;;3.55;;
62711;SDS011;48772;55.586;37.730;2023-06-14T17:35:06;9.65;;;3.40;;
62711;SDS011;48772;55.586;37.730;2023-06-14T17:37:32;8.80;;;4.75;;
62711;SDS011;48772;55.586;37.730;2023-06-14T17:39:58;12.13;;;3.80;;
62711;SDS011;48772;55.586;37.730;2023-06-14T17:42:24;15.63;;;3.47;;
62711;SDS011;48772;55.586;37.730;2023-06-14T17:44:50;7.03;;;3.30;;
62711;SDS011;48772;55.586;37.730;2023-06-14T17:47:18;13.70;;;3.30;;
62711;SDS011;48772;55.586;37.730;2023-06-14T17:49:45;7.65;;;3.42;;
62711;SDS011;48772;55.586;37.730;2023-06-14T17:52:15;11.38;;;3.28;;
62711;SDS011;48772;55.586;37.730;2023-06-14T17:54:41;9.02;;;3.25;;
62711;SDS011;48772;55.586;37.730;2023-06-14T17:57:07;8.65;;;3.72;;
62711;SDS011;48772;55.586;37.730;2023-06-14T17:59:33;10.80;;;3.90;;
62711;SDS011;48772;55.586;37.730;2023-06-14T18:01:58;10.25;;;4.32;;
62711;SDS011;48772;55.586;37.730;2023-06-14T18:05:02;9.75;;;3.95;;
62711;SDS011;48772;55.586;37.730;2023-06-14T18:07:46;8.90;;;4.13;;
62711;SDS011;48772;55.586;37.730;2023-06-14T18:12:59;13.85;;;4.35;;
62711;SDS011;48772;55.586;37.730;2023-06-14T18:15:26;17.38;;;5.13;;
62711;SDS011;48772;55.586;37.730;2023-06-14T18:17:52;14.88;;;4.68;;
62711;SDS011;48772;55.586;37.730;2023-06-14T18:20:19;13.13;;;4.57;;
62711;SDS011;48772;55.586;37.730;2023-06-14T18:22:46;14.75;;;4.93;;
62711;SDS011;48772;55.586;37.730;2023-06-14T18:25:12;15.82;;;4.80;;
62711;SDS011;48772;55.586;37.730;2023-06-14T18:27:57;13.35;;;4.72;;